sensor_id;sensor_type;location;lat;lon;timestamp;P1;durP1;ratioP1;P2;durP2;ratioP2
17858;SDS011;35426;30.698;104.050;2023-04-25T00:02:07;40.33;;;23.63;;
17858;SDS011;35426;30.698;104.050;2023-04-25T00:04:47;46.27;;;25.50;;
17858;SDS011;35426;30.698;104.050;2023-04-25T00:07:21;42.10;;;23.93;;
17858;SDS011;35426;30.698;104.050;2023-04-25T00:09:56;47.83;;;25.40;;
17858;SDS011;35426;30.698;104.050;2023-04-25T00:12:30;41.67;;;23.57;;
17858;SDS011;35426;30.698;104.050;2023-04-25T00:15:03;37.63;;;22.80;;
17858;SDS011;35426;30.698;104.050;2023-04-25T00:17:37;48.53;;;24.90;;
17858;SDS011;35426;30.698;104.050;2023-04-25T00:20:11;38.30;;;23.00;;
17858;SDS011;35426;30.698;104.050;2023-04-25T00:22:45;41.40;;;23.20;;
17858;SDS011;35426;30.698;104.050;2023-04-25T00:25:20;46.50;;;24.27;;
17858;SDS011;35426;30.698;104.050;2023-04-25T00:27:54;39.23;;;22.83;;
17858;SDS011;35426;30.698;104.050;2023-04-25T00:30:28;37.43;;;21.80;;
17858;SDS011;35426;30.698;104.050;2023-04-25T00:33:02;42.80;;;22.07;;
17858;SDS011;35426;30.698;104.050;2023-04-25T00:35:37;34.83;;;20.93;;
17858;SDS011;35426;30.698;104.050;2023-04-25T00:38:11;37.97;;;21.80;;
17858;SDS011;35426;30.698;104.050;2023-04-25T00:40:46;42.93;;;22.63;;
17858;SDS011;35426;30.698;104.050;2023-04-25T00:43:19;41.67;;;22.57;;
17858;SDS011;35426;30.698;104.050;2023-04-25T00:45:52;44.27;;;23.37;;
17858;SDS011;35426;30.698;104.050;2023-04-25T00:48:27;40.60;;;22.83;;
17858;SDS011;35426;30.698;104.050;2023-04-25T00:51:00;36.93;;;23.07;;
17858;SDS011;35426;30.698;104.050;2023-04-25T00:53:34;44.70;;;23.63;;
17858;SDS011;35426;30.698;104.050;2023-04-25T00:56:10;44.77;;;24.47;;
17858;SDS011;35426;30.698;104.050;2023-04-25T00:58:43;41.27;;;23.63;;
17858;SDS011;35426;30.698;104.050;2023-04-25T01:01:17;38.43;;;24.63;;
17858;SDS011;35426;30.698;104.050;2023-04-25T01:03:50;40.03;;;24.37;;
17858;SDS011;35426;30.698;104.050;2023-04-25T01:06:25;35.97;;;22.80;;
17858;SDS011;35426;30.698;104.050;2023-04-25T01:08:59;35.87;;;22.33;;
17858;SDS011;35426;30.698;104.050;2023-04-25T01:11:35;38.57;;;24.03;;
17858;SDS011;35426;30.698;104.050;2023-04-25T01:14:09;36.90;;;23.73;;
17858;SDS011;35426;30.698;104.050;2023-04-25T01:16:43;32.93;;;21.80;;
17858;SDS011;35426;30.698;104.050;2023-04-25T01:19:18;31.27;;;21.97;;
17858;SDS011;35426;30.698;104.050;2023-04-25T01:21:54;33.53;;;21.33;;
17858;SDS011;35426;30.698;104.050;2023-04-25T01:24:29;37.00;;;22.63;;
17858;SDS011;35426;30.698;104.050;2023-04-25T01:27:04;35.33;;;21.80;;
17858;SDS011;35426;30.698;104.050;2023-04-25T01:29:37;34.87;;;20.73;;
17858;SDS011;35426;30.698;104.050;2023-04-25T01:32:11;35.73;;;22.17;;
17858;SDS011;35426;30.698;104.050;2023-04-25T01:34:45;36.23;;;22.23;;
17858;SDS011;35426;30.698;104.050;2023-04-25T01:37:21;37.43;;;22.03;;
17858;SDS011;35426;30.698;104.050;2023-04-25T01:39:55;36.67;;;22.87;;
17858;SDS011;35426;30.698;104.050;2023-04-25T01:42:29;38.57;;;23.10;;
17858;SDS011;35426;30.698;104.050;2023-04-25T01:45:02;37.23;;;21.53;;
17858;SDS011;35426;30.698;104.050;2023-04-25T01:47:37;37.10;;;22.43;;
17858;SDS011;35426;30.698;104.050;2023-04-25T01:50:12;41.97;;;23.57;;
17858;SDS011;35426;30.698;104.050;2023-04-25T01:52:49;41.00;;;24.47;;
17858;SDS011;35426;30.698;104.050;2023-04-25T01:55:22;39.17;;;23.87;;
17858;SDS011;35426;30.698;104.050;2023-04-25T01:58:01;37.47;;;22.60;;
17858;SDS011;35426;30.698;104.050;2023-04-25T02:01:01;36.17;;;22.30;;
17858;SDS011;35426;30.698;104.050;2023-04-25T02:03:42;40.33;;;23.50;;
17858;SDS011;35426;30.698;104.050;2023-04-25T02:06:24;41.33;;;23.50;;
17858;SDS011;35426;30.698;104.050;2023-04-25T02:09:00;45.40;;;24.43;;
17858;SDS011;35426;30.698;104.050;2023-04-25T02:11:38;38.23;;;24.50;;
17858;SDS011;35426;30.698;104.050;2023-04-25T02:14:26;40.70;;;23.13;;
17858;SDS011;35426;30.698;104.050;2023-04-25T02:17:11;44.33;;;24.87;;
17858;SDS011;35426;30.698;104.050;2023-04-25T02:19:45;45.20;;;23.50;;
17858;SDS011;35426;30.698;104.050;2023-04-25T02:22:19;45.20;;;23.70;;
17858;SDS011;35426;30.698;104.050;2023-04-25T02:24:54;52.03;;;23.40;;
17858;SDS011;35426;30.698;104.050;2023-04-25T02:27:27;42.33;;;23.40;;
17858;SDS011;35426;30.698;104.050;2023-04-25T02:30:00;49.63;;;25.70;;
17858;SDS011;35426;30.698;104.050;2023-04-25T02:32:34;42.17;;;23.53;;
17858;SDS011;35426;30.698;104.050;2023-04-25T02:35:09;41.33;;;23.27;;
17858;SDS011;35426;30.698;104.050;2023-04-25T02:37:42;43.63;;;24.83;;
17858;SDS011;35426;30.698;104.050;2023-04-25T02:40:20;43.37;;;23.57;;
17858;SDS011;35426;30.698;104.050;2023-04-25T02:42:57;43.90;;;23.13;;
17858;SDS011;35426;30.698;104.050;2023-04-25T02:45:32;44.00;;;24.07;;
17858;SDS011;35426;30.698;104.050;2023-04-25T02:48:07;44.40;;;24.40;;
17858;SDS011;35426;30.698;104.050;2023-04-25T02:50:40;42.30;;;23.07;;
17858;SDS011;35426;30.698;104.050;2023-04-25T02:53:13;41.53;;;23.27;;
17858;SDS011;35426;30.698;104.050;2023-04-25T02:55:51;40.00;;;23.70;;
17858;SDS011;35426;30.698;104.050;2023-04-25T02:58:27;41.40;;;24.70;;
17858;SDS011;35426;30.698;104.050;2023-04-25T03:01:00;45.93;;;24.57;;
17858;SDS011;35426;30.698;104.050;2023-04-25T03:03:34;48.87;;;25.93;;
17858;SDS011;35426;30.698;104.050;2023-04-25T03:06:07;40.37;;;24.80;;
17858;SDS011;35426;30.698;104.050;2023-04-25T03:08:41;39.77;;;23.50;;
17858;SDS011;35426;30.698;104.050;2023-04-25T03:11:16;41.77;;;23.27;;
17858;SDS011;35426;30.698;104.050;2023-04-25T03:13:51;39.97;;;21.53;;
17858;SDS011;35426;30.698;104.050;2023-04-25T03:16:24;37.57;;;21.87;;
17858;SDS011;35426;30.698;104.050;2023-04-25T03:18:57;43.17;;;22.30;;
17858;SDS011;35426;30.698;104.050;2023-04-25T03:21:30;40.10;;;22.17;;
17858;SDS011;35426;30.698;104.050;2023-04-25T03:24:05;36.17;;;22.13;;
17858;SDS011;35426;30.698;104.050;2023-04-25T03:26:41;39.20;;;22.07;;
17858;SDS011;35426;30.698;104.050;2023-04-25T03:29:15;40.77;;;24.67;;
17858;SDS011;35426;30.698;104.050;2023-04-25T03:31:49;41.90;;;21.57;;
17858;SDS011;35426;30.698;104.050;2023-04-25T03:34:23;36.63;;;21.13;;
17858;SDS011;35426;30.698;104.050;2023-04-25T03:36:57;42.30;;;24.67;;
17858;SDS011;35426;30.698;104.050;2023-04-25T03:39:35;44.13;;;24.73;;
17858;SDS011;35426;30.698;104.050;2023-04-25T03:42:11;46.57;;;27.10;;
17858;SDS011;35426;30.698;104.050;2023-04-25T03:44:44;40.97;;;24.57;;
17858;SDS011;35426;30.698;104.050;2023-04-25T03:47:17;45.90;;;25.53;;
17858;SDS011;35426;30.698;104.050;2023-04-25T03:49:51;42.70;;;25.20;;
17858;SDS011;35426;30.698;104.050;2023-04-25T03:52:24;49.83;;;28.83;;
17858;SDS011;35426;30.698;104.050;2023-04-25T03:54:58;44.67;;;28.13;;
17858;SDS011;35426;30.698;104.050;2023-04-25T03:57:32;47.23;;;27.33;;
17858;SDS011;35426;30.698;104.050;2023-04-25T04:00:05;50.27;;;28.20;;
17858;SDS011;35426;30.698;104.050;2023-04-25T04:02:42;50.70;;;27.93;;
17858;SDS011;35426;30.698;104.050;2023-04-25T04:05:18;43.93;;;27.20;;
17858;SDS011;35426;30.698;104.050;2023-04-25T04:08:12;50.97;;;28.90;;
17858;SDS011;35426;30.698;104.050;2023-04-25T04:10:46;47.50;;;28.73;;
17858;SDS011;35426;30.698;104.050;2023-04-25T04:13:21;53.27;;;30.50;;
17858;SDS011;35426;30.698;104.050;2023-04-25T04:15:54;48.83;;;29.73;;
17858;SDS011;35426;30.698;104.050;2023-04-25T04:18:27;50.53;;;28.00;;
17858;SDS011;35426;30.698;104.050;2023-04-25T04:21:02;48.10;;;27.07;;
17858;SDS011;35426;30.698;104.050;2023-04-25T04:23:39;46.23;;;26.90;;
17858;SDS011;35426;30.698;104.050;2023-04-25T04:26:13;45.00;;;26.40;;
17858;SDS011;35426;30.698;104.050;2023-04-25T04:29:00;46.30;;;27.47;;
17858;SDS011;35426;30.698;104.050;2023-04-25T04:31:54;51.10;;;27.40;;
17858;SDS011;35426;30.698;104.050;2023-04-25T04:34:27;46.23;;;28.03;;
17858;SDS011;35426;30.698;104.050;2023-04-25T04:37:00;46.80;;;29.37;;
17858;SDS011;35426;30.698;104.050;2023-04-25T04:39:35;48.77;;;27.77;;
17858;SDS011;35426;30.698;104.050;2023-04-25T04:42:29;49.57;;;27.77;;
17858;SDS011;35426;30.698;104.050;2023-04-25T04:45:13;45.30;;;25.20;;
17858;SDS011;35426;30.698;104.050;2023-04-25T04:48:08;41.47;;;26.40;;
17858;SDS011;35426;30.698;104.050;2023-04-25T04:50:55;43.17;;;25.60;;
17858;SDS011;35426;30.698;104.050;2023-04-25T04:53:59;49.77;;;27.77;;
17858;SDS011;35426;30.698;104.050;2023-04-25T04:57:00;42.33;;;24.70;;
17858;SDS011;35426;30.698;104.050;2023-04-25T04:59:43;47.77;;;27.43;;
17858;SDS011;35426;30.698;104.050;2023-04-25T05:02:36;44.00;;;24.77;;
17858;SDS011;35426;30.698;104.050;2023-04-25T05:05:33;39.43;;;24.00;;
17858;SDS011;35426;30.698;104.050;2023-04-25T05:08:12;39.07;;;24.03;;
17858;SDS011;35426;30.698;104.050;2023-04-25T05:10:56;46.67;;;22.87;;
17858;SDS011;35426;30.698;104.050;2023-04-25T05:13:38;43.50;;;23.47;;
17858;SDS011;35426;30.698;104.050;2023-04-25T05:16:26;42.13;;;23.73;;
17858;SDS011;35426;30.698;104.050;2023-04-25T05:19:18;43.17;;;25.97;;
17858;SDS011;35426;30.698;104.050;2023-04-25T05:22:09;47.80;;;25.90;;
17858;SDS011;35426;30.698;104.050;2023-04-25T05:25:03;43.70;;;24.23;;
17858;SDS011;35426;30.698;104.050;2023-04-25T05:28:05;46.70;;;24.80;;
17858;SDS011;35426;30.698;104.050;2023-04-25T05:31:04;40.63;;;21.33;;
17858;SDS011;35426;30.698;104.050;2023-04-25T05:33:48;39.87;;;21.77;;
17858;SDS011;35426;30.698;104.050;2023-04-25T05:36:27;37.70;;;22.13;;
17858;SDS011;35426;30.698;104.050;2023-04-25T05:39:01;40.03;;;21.67;;
17858;SDS011;35426;30.698;104.050;2023-04-25T05:41:55;47.43;;;25.57;;
17858;SDS011;35426;30.698;104.050;2023-04-25T05:44:47;42.53;;;22.03;;
17858;SDS011;35426;30.698;104.050;2023-04-25T05:47:33;37.57;;;20.03;;
17858;SDS011;35426;30.698;104.050;2023-04-25T05:50:14;32.57;;;18.23;;
17858;SDS011;35426;30.698;104.050;2023-04-25T05:52:58;39.90;;;17.37;;
17858;SDS011;35426;30.698;104.050;2023-04-25T05:55:42;26.90;;;14.60;;
17858;SDS011;35426;30.698;104.050;2023-04-25T05:58:24;27.53;;;14.13;;
17858;SDS011;35426;30.698;104.050;2023-04-25T06:00:59;31.53;;;15.53;;
17858;SDS011;35426;30.698;104.050;2023-04-25T06:03:33;30.83;;;14.53;;
17858;SDS011;35426;30.698;104.050;2023-04-25T06:06:07;30.23;;;12.97;;
17858;SDS011;35426;30.698;104.050;2023-04-25T06:08:45;33.17;;;13.63;;
17858;SDS011;35426;30.698;104.050;2023-04-25T06:11:19;27.27;;;13.67;;
17858;SDS011;35426;30.698;104.050;2023-04-25T06:13:53;29.07;;;13.53;;
17858;SDS011;35426;30.698;104.050;2023-04-25T06:16:26;25.20;;;9.53;;
17858;SDS011;35426;30.698;104.050;2023-04-25T06:19:00;26.60;;;8.83;;
17858;SDS011;35426;30.698;104.050;2023-04-25T06:21:33;21.00;;;7.63;;
17858;SDS011;35426;30.698;104.050;2023-04-25T06:24:09;24.03;;;8.33;;
17858;SDS011;35426;30.698;104.050;2023-04-25T06:26:45;26.73;;;7.93;;
17858;SDS011;35426;30.698;104.050;2023-04-25T06:29:19;21.00;;;7.37;;
17858;SDS011;35426;30.698;104.050;2023-04-25T06:31:52;21.60;;;7.37;;
17858;SDS011;35426;30.698;104.050;2023-04-25T06:34:26;19.70;;;7.17;;
17858;SDS011;35426;30.698;104.050;2023-04-25T06:36:59;21.47;;;7.73;;
17858;SDS011;35426;30.698;104.050;2023-04-25T06:39:36;19.73;;;7.57;;
17858;SDS011;35426;30.698;104.050;2023-04-25T06:42:10;21.83;;;7.27;;
17858;SDS011;35426;30.698;104.050;2023-04-25T06:44:52;28.90;;;7.47;;
17858;SDS011;35426;30.698;104.050;2023-04-25T06:47:26;20.27;;;7.20;;
17858;SDS011;35426;30.698;104.050;2023-04-25T06:50:05;24.27;;;8.40;;
17858;SDS011;35426;30.698;104.050;2023-04-25T06:52:42;23.50;;;8.27;;
17858;SDS011;35426;30.698;104.050;2023-04-25T06:55:16;21.57;;;8.20;;
17858;SDS011;35426;30.698;104.050;2023-04-25T06:58:11;22.80;;;8.20;;
17858;SDS011;35426;30.698;104.050;2023-04-25T07:00:51;28.07;;;8.33;;
17858;SDS011;35426;30.698;104.050;2023-04-25T07:03:26;21.73;;;8.03;;
17858;SDS011;35426;30.698;104.050;2023-04-25T07:06:04;23.73;;;8.13;;
17858;SDS011;35426;30.698;104.050;2023-04-25T07:08:39;17.27;;;7.80;;
17858;SDS011;35426;30.698;104.050;2023-04-25T07:11:14;20.40;;;8.07;;
17858;SDS011;35426;30.698;104.050;2023-04-25T07:13:47;28.43;;;8.83;;
17858;SDS011;35426;30.698;104.050;2023-04-25T07:16:22;32.00;;;9.70;;
17858;SDS011;35426;30.698;104.050;2023-04-25T07:18:56;23.90;;;8.30;;
17858;SDS011;35426;30.698;104.050;2023-04-25T07:21:29;26.63;;;8.73;;
17858;SDS011;35426;30.698;104.050;2023-04-25T07:24:04;24.47;;;8.70;;
17858;SDS011;35426;30.698;104.050;2023-04-25T07:26:44;25.60;;;8.47;;
17858;SDS011;35426;30.698;104.050;2023-04-25T07:29:33;15.97;;;7.40;;
17858;SDS011;35426;30.698;104.050;2023-04-25T07:32:06;29.07;;;8.50;;
17858;SDS011;35426;30.698;104.050;2023-04-25T07:34:42;24.97;;;8.87;;
17858;SDS011;35426;30.698;104.050;2023-04-25T07:37:15;22.00;;;9.43;;
17858;SDS011;35426;30.698;104.050;2023-04-25T07:40:00;25.60;;;9.87;;
17858;SDS011;35426;30.698;104.050;2023-04-25T07:42:36;26.53;;;9.03;;
17858;SDS011;35426;30.698;104.050;2023-04-25T07:45:10;24.00;;;8.73;;
17858;SDS011;35426;30.698;104.050;2023-04-25T07:47:44;25.87;;;9.33;;
17858;SDS011;35426;30.698;104.050;2023-04-25T07:50:19;21.57;;;9.57;;
17858;SDS011;35426;30.698;104.050;2023-04-25T07:52:53;27.90;;;9.43;;
17858;SDS011;35426;30.698;104.050;2023-04-25T07:55:32;22.30;;;8.83;;
17858;SDS011;35426;30.698;104.050;2023-04-25T07:58:16;25.60;;;9.00;;
17858;SDS011;35426;30.698;104.050;2023-04-25T08:00:58;22.83;;;8.80;;
17858;SDS011;35426;30.698;104.050;2023-04-25T08:03:34;24.87;;;8.77;;
17858;SDS011;35426;30.698;104.050;2023-04-25T08:06:23;26.57;;;8.53;;
17858;SDS011;35426;30.698;104.050;2023-04-25T08:09:05;25.27;;;9.27;;
17858;SDS011;35426;30.698;104.050;2023-04-25T08:11:41;23.57;;;8.30;;
17858;SDS011;35426;30.698;104.050;2023-04-25T08:14:22;23.93;;;8.30;;
17858;SDS011;35426;30.698;104.050;2023-04-25T08:16:56;30.27;;;8.93;;
17858;SDS011;35426;30.698;104.050;2023-04-25T08:19:34;23.40;;;8.00;;
17858;SDS011;35426;30.698;104.050;2023-04-25T08:22:12;26.37;;;8.63;;
17858;SDS011;35426;30.698;104.050;2023-04-25T08:24:53;24.30;;;8.10;;
17858;SDS011;35426;30.698;104.050;2023-04-25T08:27:27;19.00;;;7.53;;
17858;SDS011;35426;30.698;104.050;2023-04-25T08:30:02;18.67;;;7.40;;
17858;SDS011;35426;30.698;104.050;2023-04-25T08:32:36;19.60;;;7.33;;
17858;SDS011;35426;30.698;104.050;2023-04-25T08:35:26;17.10;;;7.40;;
17858;SDS011;35426;30.698;104.050;2023-04-25T08:38:00;25.10;;;8.47;;
17858;SDS011;35426;30.698;104.050;2023-04-25T08:40:35;26.70;;;7.63;;
17858;SDS011;35426;30.698;104.050;2023-04-25T08:43:15;21.83;;;7.37;;
17858;SDS011;35426;30.698;104.050;2023-04-25T08:45:55;23.97;;;6.57;;
17858;SDS011;35426;30.698;104.050;2023-04-25T08:48:52;20.60;;;7.07;;
17858;SDS011;35426;30.698;104.050;2023-04-25T08:51:31;18.77;;;7.23;;
17858;SDS011;35426;30.698;104.050;2023-04-25T08:54:08;20.03;;;6.87;;
17858;SDS011;35426;30.698;104.050;2023-04-25T08:57:03;22.73;;;7.27;;
17858;SDS011;35426;30.698;104.050;2023-04-25T08:59:36;20.80;;;7.37;;
17858;SDS011;35426;30.698;104.050;2023-04-25T09:02:17;14.00;;;6.87;;
17858;SDS011;35426;30.698;104.050;2023-04-25T09:04:52;18.97;;;6.97;;
17858;SDS011;35426;30.698;104.050;2023-04-25T09:07:27;20.40;;;7.10;;
17858;SDS011;35426;30.698;104.050;2023-04-25T09:10:00;29.57;;;8.00;;
17858;SDS011;35426;30.698;104.050;2023-04-25T09:12:37;19.13;;;6.60;;
17858;SDS011;35426;30.698;104.050;2023-04-25T09:15:11;31.63;;;7.87;;
17858;SDS011;35426;30.698;104.050;2023-04-25T09:18:13;22.83;;;6.80;;
17858;SDS011;35426;30.698;104.050;2023-04-25T09:21:04;23.23;;;7.33;;
17858;SDS011;35426;30.698;104.050;2023-04-25T09:23:45;23.77;;;6.77;;
17858;SDS011;35426;30.698;104.050;2023-04-25T09:26:21;20.53;;;7.03;;
17858;SDS011;35426;30.698;104.050;2023-04-25T09:28:58;20.30;;;6.70;;
17858;SDS011;35426;30.698;104.050;2023-04-25T09:31:41;20.13;;;7.17;;
17858;SDS011;35426;30.698;104.050;2023-04-25T09:34:16;27.20;;;6.80;;
17858;SDS011;35426;30.698;104.050;2023-04-25T09:36:54;19.60;;;6.90;;
17858;SDS011;35426;30.698;104.050;2023-04-25T09:39:48;31.47;;;7.60;;
17858;SDS011;35426;30.698;104.050;2023-04-25T09:42:26;26.83;;;6.97;;
17858;SDS011;35426;30.698;104.050;2023-04-25T09:45:05;22.83;;;6.63;;
17858;SDS011;35426;30.698;104.050;2023-04-25T09:47:40;21.83;;;7.07;;
17858;SDS011;35426;30.698;104.050;2023-04-25T09:50:22;30.33;;;7.50;;
17858;SDS011;35426;30.698;104.050;2023-04-25T09:53:05;29.33;;;7.43;;
17858;SDS011;35426;30.698;104.050;2023-04-25T09:56:03;29.53;;;8.07;;
17858;SDS011;35426;30.698;104.050;2023-04-25T09:58:38;23.97;;;8.00;;
17858;SDS011;35426;30.698;104.050;2023-04-25T10:01:12;30.17;;;7.90;;
17858;SDS011;35426;30.698;104.050;2023-04-25T10:04:01;26.93;;;7.70;;
17858;SDS011;35426;30.698;104.050;2023-04-25T10:07:02;22.27;;;7.93;;
17858;SDS011;35426;30.698;104.050;2023-04-25T10:09:38;28.40;;;8.07;;
17858;SDS011;35426;30.698;104.050;2023-04-25T10:12:12;22.23;;;7.20;;
17858;SDS011;35426;30.698;104.050;2023-04-25T10:14:46;31.33;;;7.67;;
17858;SDS011;35426;30.698;104.050;2023-04-25T10:17:20;27.03;;;8.30;;
17858;SDS011;35426;30.698;104.050;2023-04-25T10:19:54;28.57;;;7.73;;
17858;SDS011;35426;30.698;104.050;2023-04-25T10:22:31;23.97;;;7.73;;
17858;SDS011;35426;30.698;104.050;2023-04-25T10:25:10;22.67;;;7.10;;
17858;SDS011;35426;30.698;104.050;2023-04-25T10:27:45;26.40;;;7.90;;
17858;SDS011;35426;30.698;104.050;2023-04-25T10:30:20;27.90;;;7.87;;
17858;SDS011;35426;30.698;104.050;2023-04-25T10:32:55;28.93;;;7.63;;
17858;SDS011;35426;30.698;104.050;2023-04-25T10:35:29;19.47;;;7.50;;
17858;SDS011;35426;30.698;104.050;2023-04-25T10:38:09;22.23;;;8.50;;
17858;SDS011;35426;30.698;104.050;2023-04-25T10:43:37;23.57;;;8.30;;
17858;SDS011;35426;30.698;104.050;2023-04-25T10:46:17;19.57;;;8.07;;
17858;SDS011;35426;30.698;104.050;2023-04-25T10:48:56;27.90;;;8.87;;
17858;SDS011;35426;30.698;104.050;2023-04-25T10:51:31;28.53;;;7.50;;
17858;SDS011;35426;30.698;104.050;2023-04-25T10:54:23;24.63;;;8.77;;
17858;SDS011;35426;30.698;104.050;2023-04-25T10:56:58;27.23;;;9.10;;
17858;SDS011;35426;30.698;104.050;2023-04-25T10:59:31;25.33;;;8.47;;
17858;SDS011;35426;30.698;104.050;2023-04-25T11:02:11;26.10;;;8.97;;
17858;SDS011;35426;30.698;104.050;2023-04-25T11:04:44;22.17;;;8.37;;
17858;SDS011;35426;30.698;104.050;2023-04-25T11:07:23;28.97;;;8.77;;
17858;SDS011;35426;30.698;104.050;2023-04-25T11:10:08;29.23;;;9.03;;
17858;SDS011;35426;30.698;104.050;2023-04-25T11:12:46;21.33;;;8.33;;
17858;SDS011;35426;30.698;104.050;2023-04-25T11:15:19;29.13;;;8.40;;
17858;SDS011;35426;30.698;104.050;2023-04-25T11:17:52;23.07;;;8.27;;
17858;SDS011;35426;30.698;104.050;2023-04-25T11:20:25;23.80;;;8.03;;
17858;SDS011;35426;30.698;104.050;2023-04-25T11:22:59;22.00;;;8.27;;
17858;SDS011;35426;30.698;104.050;2023-04-25T11:25:35;26.93;;;7.90;;
17858;SDS011;35426;30.698;104.050;2023-04-25T11:28:09;27.23;;;8.13;;
17858;SDS011;35426;30.698;104.050;2023-04-25T11:30:47;23.10;;;8.97;;
17858;SDS011;35426;30.698;104.050;2023-04-25T11:33:23;23.00;;;9.17;;
17858;SDS011;35426;30.698;104.050;2023-04-25T11:35:58;22.00;;;9.10;;
17858;SDS011;35426;30.698;104.050;2023-04-25T11:38:31;24.73;;;8.90;;
17858;SDS011;35426;30.698;104.050;2023-04-25T11:41:07;27.40;;;8.57;;
17858;SDS011;35426;30.698;104.050;2023-04-25T11:43:41;21.77;;;8.27;;
17858;SDS011;35426;30.698;104.050;2023-04-25T11:46:17;25.60;;;9.17;;
17858;SDS011;35426;30.698;104.050;2023-04-25T11:48:51;25.30;;;9.07;;
17858;SDS011;35426;30.698;104.050;2023-04-25T11:51:27;26.40;;;9.10;;
17858;SDS011;35426;30.698;104.050;2023-04-25T11:54:00;24.73;;;8.67;;
17858;SDS011;35426;30.698;104.050;2023-04-25T11:56:35;20.67;;;8.63;;
17858;SDS011;35426;30.698;104.050;2023-04-25T11:59:08;28.57;;;9.30;;
17858;SDS011;35426;30.698;104.050;2023-04-25T12:01:41;20.83;;;8.70;;
17858;SDS011;35426;30.698;104.050;2023-04-25T12:04:21;27.83;;;8.97;;
17858;SDS011;35426;30.698;104.050;2023-04-25T12:06:55;24.03;;;8.97;;
17858;SDS011;35426;30.698;104.050;2023-04-25T12:09:31;26.63;;;8.60;;
17858;SDS011;35426;30.698;104.050;2023-04-25T12:12:09;20.87;;;8.83;;
17858;SDS011;35426;30.698;104.050;2023-04-25T12:14:46;32.57;;;8.73;;
17858;SDS011;35426;30.698;104.050;2023-04-25T12:17:22;27.43;;;8.47;;
17858;SDS011;35426;30.698;104.050;2023-04-25T12:19:55;26.53;;;9.03;;
17858;SDS011;35426;30.698;104.050;2023-04-25T12:22:28;24.40;;;8.90;;
17858;SDS011;35426;30.698;104.050;2023-04-25T12:25:02;24.70;;;8.60;;
17858;SDS011;35426;30.698;104.050;2023-04-25T12:27:39;24.40;;;8.93;;
17858;SDS011;35426;30.698;104.050;2023-04-25T12:30:13;27.23;;;9.27;;
17858;SDS011;35426;30.698;104.050;2023-04-25T12:32:47;22.70;;;8.40;;
17858;SDS011;35426;30.698;104.050;2023-04-25T12:35:20;29.30;;;8.93;;
17858;SDS011;35426;30.698;104.050;2023-04-25T12:37:53;22.47;;;8.47;;
17858;SDS011;35426;30.698;104.050;2023-04-25T12:40:27;21.67;;;8.60;;
17858;SDS011;35426;30.698;104.050;2023-04-25T12:43:02;23.27;;;8.83;;
17858;SDS011;35426;30.698;104.050;2023-04-25T12:45:36;22.07;;;8.53;;
17858;SDS011;35426;30.698;104.050;2023-04-25T12:48:10;17.77;;;8.60;;
17858;SDS011;35426;30.698;104.050;2023-04-25T12:50:44;26.87;;;9.30;;
17858;SDS011;35426;30.698;104.050;2023-04-25T12:53:18;24.53;;;8.80;;
17858;SDS011;35426;30.698;104.050;2023-04-25T12:55:54;28.40;;;10.10;;
17858;SDS011;35426;30.698;104.050;2023-04-25T12:58:29;26.63;;;9.67;;
17858;SDS011;35426;30.698;104.050;2023-04-25T13:01:03;28.17;;;10.43;;
17858;SDS011;35426;30.698;104.050;2023-04-25T13:03:38;27.47;;;10.40;;
17858;SDS011;35426;30.698;104.050;2023-04-25T13:06:13;21.93;;;9.37;;
17858;SDS011;35426;30.698;104.050;2023-04-25T13:08:47;24.30;;;9.80;;
17858;SDS011;35426;30.698;104.050;2023-04-25T13:11:21;26.07;;;9.67;;
17858;SDS011;35426;30.698;104.050;2023-04-25T13:13:56;29.67;;;9.80;;
17858;SDS011;35426;30.698;104.050;2023-04-25T13:16:30;26.73;;;10.00;;
17858;SDS011;35426;30.698;104.050;2023-04-25T13:19:03;29.30;;;10.63;;
17858;SDS011;35426;30.698;104.050;2023-04-25T13:21:41;32.57;;;9.53;;
17858;SDS011;35426;30.698;104.050;2023-04-25T13:24:14;26.60;;;9.90;;
17858;SDS011;35426;30.698;104.050;2023-04-25T13:26:47;24.70;;;10.03;;
17858;SDS011;35426;30.698;104.050;2023-04-25T13:29:23;28.67;;;10.00;;
17858;SDS011;35426;30.698;104.050;2023-04-25T13:32:13;26.07;;;9.90;;
17858;SDS011;35426;30.698;104.050;2023-04-25T13:34:46;23.77;;;9.80;;
17858;SDS011;35426;30.698;104.050;2023-04-25T13:37:19;26.17;;;9.70;;
17858;SDS011;35426;30.698;104.050;2023-04-25T13:39:54;24.63;;;10.23;;
17858;SDS011;35426;30.698;104.050;2023-04-25T13:42:28;27.17;;;9.30;;
17858;SDS011;35426;30.698;104.050;2023-04-25T13:45:02;30.27;;;10.23;;
17858;SDS011;35426;30.698;104.050;2023-04-25T13:47:35;37.23;;;10.37;;
17858;SDS011;35426;30.698;104.050;2023-04-25T13:50:10;29.57;;;10.73;;
17858;SDS011;35426;30.698;104.050;2023-04-25T13:52:44;31.87;;;10.30;;
17858;SDS011;35426;30.698;104.050;2023-04-25T13:55:21;26.03;;;10.27;;
17858;SDS011;35426;30.698;104.050;2023-04-25T13:57:55;32.50;;;11.17;;
17858;SDS011;35426;30.698;104.050;2023-04-25T14:00:31;29.60;;;11.07;;
17858;SDS011;35426;30.698;104.050;2023-04-25T14:03:04;29.93;;;10.77;;
17858;SDS011;35426;30.698;104.050;2023-04-25T14:05:38;28.43;;;10.67;;
17858;SDS011;35426;30.698;104.050;2023-04-25T14:08:11;28.73;;;10.83;;
17858;SDS011;35426;30.698;104.050;2023-04-25T14:10:44;40.43;;;13.23;;
17858;SDS011;35426;30.698;104.050;2023-04-25T14:13:17;35.33;;;11.53;;
17858;SDS011;35426;30.698;104.050;2023-04-25T14:15:54;34.90;;;11.60;;
17858;SDS011;35426;30.698;104.050;2023-04-25T14:18:28;28.77;;;11.13;;
17858;SDS011;35426;30.698;104.050;2023-04-25T14:21:01;34.07;;;11.97;;
17858;SDS011;35426;30.698;104.050;2023-04-25T14:23:35;33.53;;;12.00;;
17858;SDS011;35426;30.698;104.050;2023-04-25T14:26:09;32.97;;;12.10;;
17858;SDS011;35426;30.698;104.050;2023-04-25T14:28:42;33.50;;;11.60;;
17858;SDS011;35426;30.698;104.050;2023-04-25T14:31:17;26.03;;;11.27;;
17858;SDS011;35426;30.698;104.050;2023-04-25T14:33:50;31.23;;;12.03;;
17858;SDS011;35426;30.698;104.050;2023-04-25T14:36:26;26.03;;;11.87;;
17858;SDS011;35426;30.698;104.050;2023-04-25T14:39:01;30.00;;;11.97;;
17858;SDS011;35426;30.698;104.050;2023-04-25T14:41:35;32.17;;;12.30;;
17858;SDS011;35426;30.698;104.050;2023-04-25T14:44:09;31.53;;;12.17;;
17858;SDS011;35426;30.698;104.050;2023-04-25T14:46:44;36.27;;;12.70;;
17858;SDS011;35426;30.698;104.050;2023-04-25T14:49:21;29.50;;;13.70;;
17858;SDS011;35426;30.698;104.050;2023-04-25T14:51:54;28.27;;;13.03;;
17858;SDS011;35426;30.698;104.050;2023-04-25T14:54:33;35.67;;;13.97;;
17858;SDS011;35426;30.698;104.050;2023-04-25T14:57:06;39.47;;;13.63;;
17858;SDS011;35426;30.698;104.050;2023-04-25T14:59:40;31.60;;;13.50;;
17858;SDS011;35426;30.698;104.050;2023-04-25T15:02:16;32.43;;;13.77;;